Página principal
METAR-TAF:

METAR-TAF

Aeroportos :

Niamey, Níger

Aeroporto Internacional Diori Hamani

latitude: 13-29N, longitude: 002-10E, altura: 223 m

Observação actual do tempo

O boletim foi feito há 32 minutos, às 13:00 UTC
Vento 9 kt de oes-sudoeste, variando entre sudoeste e oes-noroeste
Temperatura 38°C
Humidade 19%
Pressão 1004 hPa
Visibilidade: 4000 m
poeira extensa

METAR: DRRN 211300Z 25009KT 230V300 4000 DU NSC 38/10 Q1004 NOSIG

Hora: 14:32 (13:32 UTC)

Previsão

O boletim foi feito há 26 horas e 32 minutos, às 11:00 UTC
Previsão válida de 20 às 12 UTC a 21 às 18 UTC
Vento 9 kt de sudeste
Visibilidade: 2500 m
poeira extensa
Tornando-se
de 20 às 14 UTC a 20 às 16 UTC
Visibilidade: 3500 m
Temporariamente
de 20 às 06 UTC a 20 às 10 UTC
Visibilidade: 2000 m

TAF: DRRN 201100Z 2012/2118 14009KT 2500 DU NSC BECMG 2014/2016 3500 TEMPO 2006/2010 2000

Observações e previsões do tempo de mais de 4000 aeroportos (mensagens METAR e TAF).

As estações disponíveis são os pontos amarelos e vermelhos sobre o mapa.

Mova o rato sobre o mapa para ver o nome da estação.

Depois clique no ponto para visualizar as observações e previsões meteorológicas.

Para alterar o mapa : clique nos botões verdes com uma cruz preta para aumentar o zoom; no botão verde com uma pitada de zoom; ou nas setas verdes para mapas adjacentes.


METAR-TAF: